sensor_id;sensor_type;location;lat;lon;timestamp;pressure;altitude;pressure_sealevel;temperature;humidity
68994;BME280;56054;50.968;5.816;2023-04-15T00:00:29;99882.84;;;9.23;71.40
68994;BME280;56054;50.968;5.816;2023-04-15T00:03:29;99882.84;;;9.23;72.73
68994;BME280;56054;50.968;5.816;2023-04-15T00:06:30;99887.91;;;9.36;71.37
68994;BME280;56054;50.968;5.816;2023-04-15T00:09:30;99876.03;;;9.25;72.33
68994;BME280;56054;50.968;5.816;2023-04-15T00:12:30;99875.06;;;9.23;73.65
68994;BME280;56054;50.968;5.816;2023-04-15T00:15:33;99881.19;;;9.09;74.33
68994;BME280;56054;50.968;5.816;2023-04-15T00:18:34;99881.84;;;9.05;74.21
68994;BME280;56054;50.968;5.816;2023-04-15T00:21:34;99878.53;;;9.07;73.89
68994;BME280;56054;50.968;5.816;2023-04-15T00:24:35;99878.75;;;9.12;73.74
68994;BME280;56054;50.968;5.816;2023-04-15T00:27:35;99871.22;;;9.16;72.04
68994;BME280;56054;50.968;5.816;2023-04-15T00:30:38;99870.69;;;9.22;71.18
68994;BME280;56054;50.968;5.816;2023-04-15T00:33:39;99873.41;;;9.09;71.68
68994;BME280;56054;50.968;5.816;2023-04-15T00:36:39;99865.50;;;9.22;71.21
68994;BME280;56054;50.968;5.816;2023-04-15T00:39:40;99864.38;;;9.17;70.63
68994;BME280;56054;50.968;5.816;2023-04-15T00:42:40;99869.38;;;9.14;71.02
68994;BME280;56054;50.968;5.816;2023-04-15T00:45:41;99866.47;;;9.08;69.35
68994;BME280;56054;50.968;5.816;2023-04-15T00:48:42;99861.06;;;8.88;69.64
68994;BME280;56054;50.968;5.816;2023-04-15T00:51:43;99864.38;;;9.17;70.02
68994;BME280;56054;50.968;5.816;2023-04-15T00:54:44;99861.94;;;9.20;69.96
68994;BME280;56054;50.968;5.816;2023-04-15T00:57:45;99866.16;;;9.18;69.22
68994;BME280;56054;50.968;5.816;2023-04-15T01:00:46;99861.06;;;9.19;70.35
68994;BME280;56054;50.968;5.816;2023-04-15T01:03:48;99865.84;;;9.28;72.35
68994;BME280;56054;50.968;5.816;2023-04-15T01:06:49;99865.50;;;9.22;73.97
68994;BME280;56054;50.968;5.816;2023-04-15T01:09:49;99858.00;;;9.27;72.96
68994;BME280;56054;50.968;5.816;2023-04-15T01:12:50;99859.41;;;9.21;73.06
68994;BME280;56054;50.968;5.816;2023-04-15T01:15:52;99852.38;;;9.19;74.01
68994;BME280;56054;50.968;5.816;2023-04-15T01:18:53;99861.06;;;9.19;74.03
68994;BME280;56054;50.968;5.816;2023-04-15T01:21:53;99859.34;;;9.20;74.73
68994;BME280;56054;50.968;5.816;2023-04-15T01:25:00;99862.81;;;9.20;75.34
68994;BME280;56054;50.968;5.816;2023-04-15T01:28:04;99862.47;;;9.14;73.99
68994;BME280;56054;50.968;5.816;2023-04-15T01:31:10;99854.53;;;9.11;74.77
68994;BME280;56054;50.968;5.816;2023-04-15T01:34:11;99860.75;;;8.98;75.76
68994;BME280;56054;50.968;5.816;2023-04-15T01:37:12;99856.94;;;8.92;74.92
68994;BME280;56054;50.968;5.816;2023-04-15T01:40:13;99865.88;;;8.82;75.49
68994;BME280;56054;50.968;5.816;2023-04-15T01:43:13;99859.59;;;8.47;76.24
68994;BME280;56054;50.968;5.816;2023-04-15T01:46:16;99860.75;;;8.52;74.49
68994;BME280;56054;50.968;5.816;2023-04-15T01:49:16;99864.22;;;8.68;73.94
68994;BME280;56054;50.968;5.816;2023-04-15T01:52:17;99870.69;;;8.45;73.17
68994;BME280;56054;50.968;5.816;2023-04-15T01:55:17;99857.63;;;8.43;72.44
68994;BME280;56054;50.968;5.816;2023-04-15T01:58:19;99857.44;;;8.55;73.11
68994;BME280;56054;50.968;5.816;2023-04-15T02:01:19;99842.25;;;8.76;72.71
68994;BME280;56054;50.968;5.816;2023-04-15T02:04:20;99850.31;;;8.51;73.12
68994;BME280;56054;50.968;5.816;2023-04-15T02:07:20;99839.06;;;8.35;74.58
68994;BME280;56054;50.968;5.816;2023-04-15T02:10:20;99846.03;;;8.36;74.91
68994;BME280;56054;50.968;5.816;2023-04-15T02:13:21;99851.03;;;8.48;75.16
68994;BME280;56054;50.968;5.816;2023-04-15T02:16:22;99859.69;;;8.34;75.32
68994;BME280;56054;50.968;5.816;2023-04-15T02:19:23;99857.88;;;8.63;75.03
68994;BME280;56054;50.968;5.816;2023-04-15T02:22:23;99864.75;;;8.77;74.61
68994;BME280;56054;50.968;5.816;2023-04-15T02:25:24;99869.91;;;8.77;74.30
68994;BME280;56054;50.968;5.816;2023-04-15T02:28:24;99868.03;;;8.74;74.98
68994;BME280;56054;50.968;5.816;2023-04-15T02:31:25;99873.13;;;8.73;76.01
68994;BME280;56054;50.968;5.816;2023-04-15T02:34:25;99874.13;;;8.60;74.85
68994;BME280;56054;50.968;5.816;2023-04-15T02:37:26;99876.63;;;8.29;76.38
68994;BME280;56054;50.968;5.816;2023-04-15T02:40:27;99882.41;;;7.95;81.12
68994;BME280;56054;50.968;5.816;2023-04-15T02:43:27;99879.00;;;7.81;80.64
68994;BME280;56054;50.968;5.816;2023-04-15T02:46:27;99889.34;;;7.53;81.47
68994;BME280;56054;50.968;5.816;2023-04-15T02:49:28;99882.63;;;7.85;79.50
68994;BME280;56054;50.968;5.816;2023-04-15T02:52:30;99885.41;;;7.73;78.27
68994;BME280;56054;50.968;5.816;2023-04-15T02:55:31;99895.47;;;7.68;77.91
68994;BME280;56054;50.968;5.816;2023-04-15T02:58:31;99888.94;;;7.75;77.49
68994;BME280;56054;50.968;5.816;2023-04-15T03:01:32;99885.13;;;7.68;77.16
68994;BME280;56054;50.968;5.816;2023-04-15T03:04:32;99887.50;;;7.65;76.76
68994;BME280;56054;50.968;5.816;2023-04-15T03:07:33;99887.50;;;7.65;77.12
68994;BME280;56054;50.968;5.816;2023-04-15T03:10:35;99885.72;;;7.64;77.00
68994;BME280;56054;50.968;5.816;2023-04-15T03:13:35;99879.00;;;7.53;77.31
68994;BME280;56054;50.968;5.816;2023-04-15T03:16:43;99885.09;;;7.40;77.29
68994;BME280;56054;50.968;5.816;2023-04-15T03:19:47;99892.97;;;7.42;76.68
68994;BME280;56054;50.968;5.816;2023-04-15T03:22:47;99886.41;;;7.34;76.79
68994;BME280;56054;50.968;5.816;2023-04-15T03:25:48;99893.00;;;7.28;77.27
68994;BME280;56054;50.968;5.816;2023-04-15T03:28:51;99887.81;;;7.28;77.19
68994;BME280;56054;50.968;5.816;2023-04-15T03:31:52;99886.22;;;7.31;77.21
68994;BME280;56054;50.968;5.816;2023-04-15T03:34:53;99882.75;;;7.30;77.39
68994;BME280;56054;50.968;5.816;2023-04-15T03:37:53;99888.53;;;7.26;77.62
68994;BME280;56054;50.968;5.816;2023-04-15T03:40:53;99888.03;;;7.18;77.80
68994;BME280;56054;50.968;5.816;2023-04-15T03:43:54;99888.22;;;7.21;78.03
68994;BME280;56054;50.968;5.816;2023-04-15T03:46:54;99892.28;;;7.31;77.18
68994;BME280;56054;50.968;5.816;2023-04-15T03:49:54;99893.97;;;7.31;77.31
68994;BME280;56054;50.968;5.816;2023-04-15T03:52:55;99899.66;;;7.25;77.53
68994;BME280;56054;50.968;5.816;2023-04-15T03:55:55;99900.38;;;7.22;77.25
68994;BME280;56054;50.968;5.816;2023-04-15T03:58:56;99909.19;;;7.26;77.01
68994;BME280;56054;50.968;5.816;2023-04-15T04:01:56;99911.19;;;7.30;76.53
68994;BME280;56054;50.968;5.816;2023-04-15T04:04:56;99908.88;;;7.35;76.55
68994;BME280;56054;50.968;5.816;2023-04-15T04:07:57;99911.38;;;7.33;76.35
68994;BME280;56054;50.968;5.816;2023-04-15T04:10:57;99921.19;;;7.39;76.61
68994;BME280;56054;50.968;5.816;2023-04-15T04:13:58;99921.75;;;7.48;76.22
68994;BME280;56054;50.968;5.816;2023-04-15T04:16:58;99913.00;;;7.59;76.50
68994;BME280;56054;50.968;5.816;2023-04-15T04:19:58;99924.63;;;7.66;75.80
68994;BME280;56054;50.968;5.816;2023-04-15T04:22:59;99922.50;;;7.74;75.28
68994;BME280;56054;50.968;5.816;2023-04-15T04:25:59;99935.50;;;7.75;76.24
68994;BME280;56054;50.968;5.816;2023-04-15T04:29:00;99937.50;;;7.51;77.43
68994;BME280;56054;50.968;5.816;2023-04-15T04:32:00;99936.91;;;7.28;79.77
68994;BME280;56054;50.968;5.816;2023-04-15T04:35:00;99945.59;;;7.57;79.88
68994;BME280;56054;50.968;5.816;2023-04-15T04:38:01;99951.72;;;7.31;78.87
68994;BME280;56054;50.968;5.816;2023-04-15T04:41:01;99954.22;;;7.16;80.43
68994;BME280;56054;50.968;5.816;2023-04-15T04:44:02;99959.09;;;7.12;80.01
68994;BME280;56054;50.968;5.816;2023-04-15T04:47:02;99955.53;;;7.10;80.61
68994;BME280;56054;50.968;5.816;2023-04-15T04:50:03;99968.25;;;7.20;80.07
68994;BME280;56054;50.968;5.816;2023-04-15T04:53:06;99968.94;;;7.17;80.70
68994;BME280;56054;50.968;5.816;2023-04-15T04:56:07;99970.50;;;7.42;79.36
68994;BME280;56054;50.968;5.816;2023-04-15T04:59:07;99964.94;;;7.49;78.97
68994;BME280;56054;50.968;5.816;2023-04-15T05:02:08;99971.13;;;7.11;80.49
68994;BME280;56054;50.968;5.816;2023-04-15T05:05:09;99978.59;;;7.20;80.63
68994;BME280;56054;50.968;5.816;2023-04-15T05:08:09;99990.69;;;6.94;81.71
68994;BME280;56054;50.968;5.816;2023-04-15T05:11:10;100000.13;;;6.80;81.22
68994;BME280;56054;50.968;5.816;2023-04-15T05:14:10;99997.75;;;6.83;81.24
68994;BME280;56054;50.968;5.816;2023-04-15T05:17:11;99995.75;;;6.79;81.40
68994;BME280;56054;50.968;5.816;2023-04-15T05:20:11;99993.38;;;6.96;80.99
68994;BME280;56054;50.968;5.816;2023-04-15T05:23:12;99997.94;;;6.86;80.98
68994;BME280;56054;50.968;5.816;2023-04-15T05:26:12;100017.13;;;7.03;81.04
68994;BME280;56054;50.968;5.816;2023-04-15T05:29:13;100015.81;;;6.97;81.18
68994;BME280;56054;50.968;5.816;2023-04-15T05:32:13;100007.50;;;7.01;81.00
68994;BME280;56054;50.968;5.816;2023-04-15T05:35:14;100028.66;;;6.95;81.37
68994;BME280;56054;50.968;5.816;2023-04-15T05:38:14;100032.59;;;6.77;82.13
68994;BME280;56054;50.968;5.816;2023-04-15T05:41:14;100040.44;;;6.92;81.66
68994;BME280;56054;50.968;5.816;2023-04-15T05:44:15;100036.91;;;7.03;81.85
68994;BME280;56054;50.968;5.816;2023-04-15T05:47:15;100046.03;;;7.11;81.16
68994;BME280;56054;50.968;5.816;2023-04-15T05:50:16;100049.69;;;6.88;81.36
68994;BME280;56054;50.968;5.816;2023-04-15T05:53:16;100058.06;;;7.11;81.52
68994;BME280;56054;50.968;5.816;2023-04-15T05:56:17;100059.41;;;6.92;82.13
68994;BME280;56054;50.968;5.816;2023-04-15T05:59:17;100071.09;;;7.12;81.43
68994;BME280;56054;50.968;5.816;2023-04-15T06:02:17;100074.09;;;6.80;83.08
68994;BME280;56054;50.968;5.816;2023-04-15T06:05:18;100066.63;;;6.71;84.11
68994;BME280;56054;50.968;5.816;2023-04-15T06:08:18;100071.63;;;6.81;83.76
68994;BME280;56054;50.968;5.816;2023-04-15T06:11:19;100068.97;;;6.93;83.15
68994;BME280;56054;50.968;5.816;2023-04-15T06:14:19;100072.50;;;7.20;82.88
68994;BME280;56054;50.968;5.816;2023-04-15T06:17:20;100085.59;;;7.10;82.92
68994;BME280;56054;50.968;5.816;2023-04-15T06:20:20;100087.88;;;7.05;83.08
68994;BME280;56054;50.968;5.816;2023-04-15T06:23:20;100095.69;;;6.94;83.10
68994;BME280;56054;50.968;5.816;2023-04-15T06:26:21;100107.41;;;6.89;83.61
68994;BME280;56054;50.968;5.816;2023-04-15T06:29:21;100118.09;;;6.81;85.26
68994;BME280;56054;50.968;5.816;2023-04-15T06:32:22;100116.56;;;6.97;85.03
68994;BME280;56054;50.968;5.816;2023-04-15T06:35:22;100121.34;;;7.04;84.34
68994;BME280;56054;50.968;5.816;2023-04-15T06:38:22;100123.78;;;7.27;83.78
68994;BME280;56054;50.968;5.816;2023-04-15T06:41:23;100127.53;;;7.19;84.42
68994;BME280;56054;50.968;5.816;2023-04-15T06:44:24;100140.47;;;7.33;83.49
68994;BME280;56054;50.968;5.816;2023-04-15T06:47:27;100138.13;;;7.49;83.68
68994;BME280;56054;50.968;5.816;2023-04-15T06:50:27;100138.91;;;7.35;83.46
68994;BME280;56054;50.968;5.816;2023-04-15T06:53:28;100137.91;;;7.46;85.00
68994;BME280;56054;50.968;5.816;2023-04-15T06:56:28;100144.69;;;7.57;84.73
68994;BME280;56054;50.968;5.816;2023-04-15T06:59:29;100143.97;;;7.46;83.98
68994;BME280;56054;50.968;5.816;2023-04-15T07:02:29;100154.00;;;7.55;84.11
68994;BME280;56054;50.968;5.816;2023-04-15T07:05:30;100158.91;;;7.90;84.07
68994;BME280;56054;50.968;5.816;2023-04-15T07:08:31;100172.44;;;7.86;83.24
68994;BME280;56054;50.968;5.816;2023-04-15T07:11:31;100172.91;;;7.94;82.40
68994;BME280;56054;50.968;5.816;2023-04-15T07:14:32;100177.88;;;8.18;82.06
68994;BME280;56054;50.968;5.816;2023-04-15T07:17:32;100187.78;;;8.38;81.63
68994;BME280;56054;50.968;5.816;2023-04-15T07:20:32;100193.41;;;8.44;81.30
68994;BME280;56054;50.968;5.816;2023-04-15T07:23:33;100195.34;;;8.62;81.30
68994;BME280;56054;50.968;5.816;2023-04-15T07:26:36;100194.94;;;8.69;80.86
68994;BME280;56054;50.968;5.816;2023-04-15T07:29:36;100196.63;;;8.68;80.40
68994;BME280;56054;50.968;5.816;2023-04-15T07:32:37;100204.25;;;8.80;80.33
68994;BME280;56054;50.968;5.816;2023-04-15T07:35:37;100216.16;;;8.91;80.62
68994;BME280;56054;50.968;5.816;2023-04-15T07:42:01;100228.31;;;8.92;79.53
68994;BME280;56054;50.968;5.816;2023-04-15T07:45:01;100229.50;;;8.97;80.02
68994;BME280;56054;50.968;5.816;2023-04-15T07:48:02;100232.84;;;9.10;80.14
68994;BME280;56054;50.968;5.816;2023-04-15T07:51:02;100244.88;;;9.37;79.21
68994;BME280;56054;50.968;5.816;2023-04-15T07:54:03;100240.59;;;9.68;78.86
68994;BME280;56054;50.968;5.816;2023-04-15T07:57:03;100242.94;;;9.78;78.73
68994;BME280;56054;50.968;5.816;2023-04-15T08:00:04;100249.09;;;9.80;78.39
68994;BME280;56054;50.968;5.816;2023-04-15T08:03:13;100262.06;;;9.80;79.09
68994;BME280;56054;50.968;5.816;2023-04-15T08:06:13;100255.19;;;10.10;78.83
68994;BME280;56054;50.968;5.816;2023-04-15T08:09:15;100263.84;;;10.25;79.14
68994;BME280;56054;50.968;5.816;2023-04-15T08:12:15;100274.34;;;10.58;79.65
68994;BME280;56054;50.968;5.816;2023-04-15T08:15:16;100272.81;;;10.31;80.27
68994;BME280;56054;50.968;5.816;2023-04-15T08:18:16;100280.53;;;10.29;81.19
68994;BME280;56054;50.968;5.816;2023-04-15T08:21:18;100280.75;;;10.48;81.58
68994;BME280;56054;50.968;5.816;2023-04-15T08:24:18;100281.91;;;10.54;81.55
68994;BME280;56054;50.968;5.816;2023-04-15T08:27:19;100282.53;;;10.81;80.50
68994;BME280;56054;50.968;5.816;2023-04-15T08:30:20;100292.47;;;11.04;79.93
68994;BME280;56054;50.968;5.816;2023-04-15T08:33:20;100292.16;;;10.98;79.49
68994;BME280;56054;50.968;5.816;2023-04-15T08:36:21;100288.59;;;11.12;78.74
68994;BME280;56054;50.968;5.816;2023-04-15T08:39:21;100301.28;;;11.39;77.52
68994;BME280;56054;50.968;5.816;2023-04-15T08:42:27;100292.63;;;11.56;75.44
68994;BME280;56054;50.968;5.816;2023-04-15T08:45:30;100302.84;;;11.86;74.61
68994;BME280;56054;50.968;5.816;2023-04-15T08:48:37;100297.50;;;11.67;73.33
68994;BME280;56054;50.968;5.816;2023-04-15T08:51:39;100303.09;;;11.91;71.63
68994;BME280;56054;50.968;5.816;2023-04-15T08:54:40;100298.19;;;11.97;70.13
68994;BME280;56054;50.968;5.816;2023-04-15T08:57:41;100307.34;;;11.89;71.07
68994;BME280;56054;50.968;5.816;2023-04-15T09:00:41;100318.75;;;12.09;71.19
68994;BME280;56054;50.968;5.816;2023-04-15T09:03:42;100316.38;;;12.31;71.12
68994;BME280;56054;50.968;5.816;2023-04-15T09:06:43;100325.78;;;12.28;69.62
68994;BME280;56054;50.968;5.816;2023-04-15T09:09:44;100328.47;;;12.29;69.92
68994;BME280;56054;50.968;5.816;2023-04-15T09:12:44;100324.41;;;12.00;67.56
68994;BME280;56054;50.968;5.816;2023-04-15T09:15:45;100338.38;;;12.02;67.62
68994;BME280;56054;50.968;5.816;2023-04-15T09:18:45;100340.38;;;12.24;67.38
68994;BME280;56054;50.968;5.816;2023-04-15T09:21:46;100351.47;;;12.38;67.68
68994;BME280;56054;50.968;5.816;2023-04-15T09:24:47;100352.81;;;12.48;67.87
68994;BME280;56054;50.968;5.816;2023-04-15T09:27:52;100359.31;;;12.74;67.16
68994;BME280;56054;50.968;5.816;2023-04-15T09:31:01;100349.47;;;12.50;66.37
68994;BME280;56054;50.968;5.816;2023-04-15T09:34:01;100359.47;;;12.59;65.94
68994;BME280;56054;50.968;5.816;2023-04-15T09:37:02;100364.34;;;12.53;65.22
68994;BME280;56054;50.968;5.816;2023-04-15T09:40:03;100367.72;;;12.86;64.21
68994;BME280;56054;50.968;5.816;2023-04-15T09:43:06;100368.53;;;12.85;61.79
68994;BME280;56054;50.968;5.816;2023-04-15T09:46:06;100370.81;;;12.97;62.29
68994;BME280;56054;50.968;5.816;2023-04-15T09:49:08;100378.81;;;13.00;62.11
68994;BME280;56054;50.968;5.816;2023-04-15T09:52:12;100380.59;;;13.01;62.12
68994;BME280;56054;50.968;5.816;2023-04-15T09:55:14;100385.41;;;13.11;60.36
68994;BME280;56054;50.968;5.816;2023-04-15T09:58:22;100389.38;;;13.39;59.33
68994;BME280;56054;50.968;5.816;2023-04-15T10:01:22;100398.03;;;13.57;57.72
68994;BME280;56054;50.968;5.816;2023-04-15T10:04:24;100392.81;;;13.57;57.65
68994;BME280;56054;50.968;5.816;2023-04-15T10:07:25;100395.13;;;13.32;59.61
68994;BME280;56054;50.968;5.816;2023-04-15T10:10:28;100406.66;;;13.37;58.38
68994;BME280;56054;50.968;5.816;2023-04-15T10:13:30;100408.22;;;13.15;57.60
68994;BME280;56054;50.968;5.816;2023-04-15T10:16:31;100413.66;;;13.20;58.11
68994;BME280;56054;50.968;5.816;2023-04-15T10:19:35;100405.06;;;13.40;59.83
68994;BME280;56054;50.968;5.816;2023-04-15T10:22:36;100421.31;;;13.53;60.88
68994;BME280;56054;50.968;5.816;2023-04-15T10:25:37;100420.50;;;13.36;60.38
68994;BME280;56054;50.968;5.816;2023-04-15T10:28:38;100408.00;;;13.85;59.48
68994;BME280;56054;50.968;5.816;2023-04-15T10:31:39;100418.38;;;13.64;58.91
68994;BME280;56054;50.968;5.816;2023-04-15T10:34:40;100424.56;;;13.66;58.04
68994;BME280;56054;50.968;5.816;2023-04-15T10:37:41;100432.06;;;13.41;57.14
68994;BME280;56054;50.968;5.816;2023-04-15T10:40:42;100436.28;;;13.57;55.77
68994;BME280;56054;50.968;5.816;2023-04-15T10:43:53;100429.44;;;13.78;54.79
68994;BME280;56054;50.968;5.816;2023-04-15T10:46:57;100435.44;;;13.95;56.40
68994;BME280;56054;50.968;5.816;2023-04-15T10:49:58;100436.78;;;13.87;57.27
68994;BME280;56054;50.968;5.816;2023-04-15T10:53:02;100426.75;;;13.77;53.29
68994;BME280;56054;50.968;5.816;2023-04-15T10:56:06;100447.38;;;13.90;52.87
68994;BME280;56054;50.968;5.816;2023-04-15T10:59:09;100451.66;;;13.88;50.89
68994;BME280;56054;50.968;5.816;2023-04-15T11:02:12;100442.56;;;13.99;51.44
68994;BME280;56054;50.968;5.816;2023-04-15T11:05:15;100448.47;;;14.15;51.94
68994;BME280;56054;50.968;5.816;2023-04-15T11:08:16;100452.44;;;14.06;51.85
68994;BME280;56054;50.968;5.816;2023-04-15T11:11:16;100449.41;;;14.17;50.79
68994;BME280;56054;50.968;5.816;2023-04-15T11:14:17;100442.94;;;14.28;50.74
68994;BME280;56054;50.968;5.816;2023-04-15T11:17:26;100448.09;;;14.26;52.63
68994;BME280;56054;50.968;5.816;2023-04-15T11:20:27;100455.53;;;14.37;54.57
68994;BME280;56054;50.968;5.816;2023-04-15T11:26:36;100454.81;;;14.20;53.88
68994;BME280;56054;50.968;5.816;2023-04-15T11:29:37;100467.78;;;14.18;51.54
68994;BME280;56054;50.968;5.816;2023-04-15T11:32:41;100473.97;;;14.20;51.27
68994;BME280;56054;50.968;5.816;2023-04-15T11:35:41;100478.88;;;13.93;51.66
68994;BME280;56054;50.968;5.816;2023-04-15T11:38:42;100483.38;;;14.17;51.05
68994;BME280;56054;50.968;5.816;2023-04-15T11:52:59;100499.88;;;14.35;51.82
68994;BME280;56054;50.968;5.816;2023-04-15T11:55:59;100489.97;;;14.47;52.25
68994;BME280;56054;50.968;5.816;2023-04-15T11:59:00;100494.44;;;13.91;53.40
68994;BME280;56054;50.968;5.816;2023-04-15T12:02:10;100507.88;;;14.19;54.15
68994;BME280;56054;50.968;5.816;2023-04-15T12:05:11;100513.03;;;13.98;54.83
68994;BME280;56054;50.968;5.816;2023-04-15T12:08:11;100512.06;;;14.15;54.94
68994;BME280;56054;50.968;5.816;2023-04-15T12:11:12;100521.97;;;14.22;55.45
68994;BME280;56054;50.968;5.816;2023-04-15T12:17:15;100523.84;;;14.25;55.34
68994;BME280;56054;50.968;5.816;2023-04-15T12:20:25;100526.50;;;14.46;56.07
68994;BME280;56054;50.968;5.816;2023-04-15T12:27:50;100549.38;;;13.93;56.51
68994;BME280;56054;50.968;5.816;2023-04-15T12:30:52;100541.84;;;14.19;56.78
68994;BME280;56054;50.968;5.816;2023-04-15T12:33:56;100549.09;;;14.24;56.77
68994;BME280;56054;50.968;5.816;2023-04-15T12:36:59;100557.16;;;14.11;56.82
68994;BME280;56054;50.968;5.816;2023-04-15T12:40:00;100577.31;;;14.13;57.15
68994;BME280;56054;50.968;5.816;2023-04-15T12:43:00;100568.88;;;14.00;57.65
68994;BME280;56054;50.968;5.816;2023-04-15T12:46:02;100562.75;;;13.81;57.91
68994;BME280;56054;50.968;5.816;2023-04-15T12:49:02;100576.31;;;13.92;57.50
68994;BME280;56054;50.968;5.816;2023-04-15T12:52:03;100569.22;;;14.07;57.42
68994;BME280;56054;50.968;5.816;2023-04-15T12:55:04;100577.81;;;14.05;58.17
68994;BME280;56054;50.968;5.816;2023-04-15T12:58:04;100579.75;;;13.91;58.13
68994;BME280;56054;50.968;5.816;2023-04-15T13:01:05;100577.75;;;14.23;57.67
68994;BME280;56054;50.968;5.816;2023-04-15T13:04:06;100584.59;;;14.01;58.01
68994;BME280;56054;50.968;5.816;2023-04-15T13:07:06;100590.38;;;14.13;58.20
68994;BME280;56054;50.968;5.816;2023-04-15T13:10:07;100586.41;;;14.02;57.61
68994;BME280;56054;50.968;5.816;2023-04-15T13:13:08;100596.09;;;14.05;58.49
68994;BME280;56054;50.968;5.816;2023-04-15T13:16:09;100610.34;;;13.94;58.25
68994;BME280;56054;50.968;5.816;2023-04-15T13:19:10;100608.28;;;13.86;56.82
68994;BME280;56054;50.968;5.816;2023-04-15T13:22:11;100610.72;;;14.01;57.65
68994;BME280;56054;50.968;5.816;2023-04-15T13:25:12;100612.06;;;13.75;57.25
68994;BME280;56054;50.968;5.816;2023-04-15T13:28:12;100613.06;;;13.95;56.96
68994;BME280;56054;50.968;5.816;2023-04-15T13:31:13;100607.81;;;14.52;56.41
68994;BME280;56054;50.968;5.816;2023-04-15T13:34:13;100608.88;;;14.75;56.51
68994;BME280;56054;50.968;5.816;2023-04-15T13:37:13;100620.44;;;14.80;55.75
68994;BME280;56054;50.968;5.816;2023-04-15T13:40:14;100615.38;;;14.46;56.99
68994;BME280;56054;50.968;5.816;2023-04-15T13:43:14;100629.47;;;14.30;56.87
68994;BME280;56054;50.968;5.816;2023-04-15T13:46:15;100627.47;;;14.24;56.58
68994;BME280;56054;50.968;5.816;2023-04-15T13:49:18;100630.91;;;14.23;57.64
68994;BME280;56054;50.968;5.816;2023-04-15T13:52:18;100628.09;;;14.56;56.22
68994;BME280;56054;50.968;5.816;2023-04-15T13:55:19;100634.34;;;14.60;55.94
68994;BME280;56054;50.968;5.816;2023-04-15T13:58:19;100638.03;;;15.04;55.39
68994;BME280;56054;50.968;5.816;2023-04-15T14:01:20;100639.63;;;15.00;53.64
68994;BME280;56054;50.968;5.816;2023-04-15T14:04:20;100637.75;;;15.59;53.05
68994;BME280;56054;50.968;5.816;2023-04-15T14:07:23;100647.91;;;15.30;51.82
68994;BME280;56054;50.968;5.816;2023-04-15T14:10:24;100647.06;;;15.31;52.98
68994;BME280;56054;50.968;5.816;2023-04-15T14:13:24;100642.28;;;15.21;53.54
68994;BME280;56054;50.968;5.816;2023-04-15T14:16:37;100644.03;;;15.41;53.77
68994;BME280;56054;50.968;5.816;2023-04-15T14:19:37;100654.22;;;15.14;54.09
68994;BME280;56054;50.968;5.816;2023-04-15T14:22:39;100649.91;;;14.95;52.60
68994;BME280;56054;50.968;5.816;2023-04-15T14:25:39;100659.81;;;14.64;54.51
68994;BME280;56054;50.968;5.816;2023-04-15T14:28:39;100659.31;;;14.72;54.45
68994;BME280;56054;50.968;5.816;2023-04-15T14:31:42;100659.38;;;15.13;55.60
68994;BME280;56054;50.968;5.816;2023-04-15T14:34:42;100657.69;;;15.34;55.03
68994;BME280;56054;50.968;5.816;2023-04-15T14:37:43;100664.88;;;15.19;54.46
68994;BME280;56054;50.968;5.816;2023-04-15T14:40:43;100665.06;;;14.83;54.80
68994;BME280;56054;50.968;5.816;2023-04-15T14:43:43;100664.63;;;14.93;53.78
68994;BME280;56054;50.968;5.816;2023-04-15T14:46:44;100667.88;;;15.07;53.46
68994;BME280;56054;50.968;5.816;2023-04-15T14:49:44;100683.97;;;14.97;53.97
68994;BME280;56054;50.968;5.816;2023-04-15T14:52:45;100676.13;;;14.77;54.07
68994;BME280;56054;50.968;5.816;2023-04-15T14:55:45;100687.88;;;14.68;54.56
68994;BME280;56054;50.968;5.816;2023-04-15T14:58:45;100679.97;;;14.48;53.86
68994;BME280;56054;50.968;5.816;2023-04-15T15:01:46;100687.53;;;14.80;54.67
68994;BME280;56054;50.968;5.816;2023-04-15T15:04:47;100696.91;;;14.94;54.27
68994;BME280;56054;50.968;5.816;2023-04-15T15:07:47;100698.63;;;14.93;53.07
68994;BME280;56054;50.968;5.816;2023-04-15T15:10:48;100697.25;;;14.82;53.87
68994;BME280;56054;50.968;5.816;2023-04-15T15:13:48;100693.53;;;14.58;52.57
68994;BME280;56054;50.968;5.816;2023-04-15T15:16:49;100699.34;;;14.52;53.59
68994;BME280;56054;50.968;5.816;2023-04-15T15:19:49;100697.34;;;14.84;53.93
68994;BME280;56054;50.968;5.816;2023-04-15T15:22:50;100703.59;;;14.87;53.33
68994;BME280;56054;50.968;5.816;2023-04-15T15:25:50;100701.69;;;14.83;54.41
68994;BME280;56054;50.968;5.816;2023-04-15T15:28:51;100701.22;;;14.54;53.79
68994;BME280;56054;50.968;5.816;2023-04-15T15:31:51;100704.94;;;14.60;54.85
68994;BME280;56054;50.968;5.816;2023-04-15T15:34:51;100719.97;;;14.28;55.12
68994;BME280;56054;50.968;5.816;2023-04-15T15:37:52;100713.13;;;14.30;55.68
68994;BME280;56054;50.968;5.816;2023-04-15T15:40:52;100722.59;;;14.28;56.79
68994;BME280;56054;50.968;5.816;2023-04-15T15:43:53;100724.22;;;14.44;55.90
68994;BME280;56054;50.968;5.816;2023-04-15T15:46:53;100729.97;;;14.19;57.24
68994;BME280;56054;50.968;5.816;2023-04-15T15:49:54;100736.63;;;13.94;57.44
68994;BME280;56054;50.968;5.816;2023-04-15T15:52:54;100740.22;;;13.78;59.33
68994;BME280;56054;50.968;5.816;2023-04-15T15:55:55;100749.81;;;13.97;58.69
68994;BME280;56054;50.968;5.816;2023-04-15T15:58:55;100750.09;;;14.20;58.58
68994;BME280;56054;50.968;5.816;2023-04-15T16:01:56;100746.91;;;13.73;58.99
68994;BME280;56054;50.968;5.816;2023-04-15T16:04:57;100768.84;;;13.77;58.90
68994;BME280;56054;50.968;5.816;2023-04-15T16:07:58;100772.47;;;13.62;58.59
68994;BME280;56054;50.968;5.816;2023-04-15T16:10:58;100774.56;;;13.69;59.20
68994;BME280;56054;50.968;5.816;2023-04-15T16:17:25;100770.84;;;13.48;59.61
68994;BME280;56054;50.968;5.816;2023-04-15T16:20:25;100791.69;;;13.81;58.41
68994;BME280;56054;50.968;5.816;2023-04-15T16:23:26;100794.97;;;13.77;59.06